Bandaranaike International Colombo Airport
VCBI : now visible

Airfield :











YOU CAN JOIN US ON...

 
LOGIN :

Register | Disclaimer

   EN    FR    IT 

 









Legend :    VFR   Marginal VFR   IFR   Intensive IFR   Very Intensive IFR
Visi :
Ceiling :
>= 8 km
>= 3000ft
5 to 8 km
1000 to 3000 ft
1500m to 5 km
500 to 1000 ft
800 to 1500m
200 to 500 ft
< 800m
< 200 ft
Symbols :   Thunderstorms  Fog  Heavy snow  Heavy precipitations  Wind > 20 kt






- Airport Elevation : 30 ft
- IATA code : CMB


VCBI - Bandaranaike International Colombo

CURRENT METAR :
  • 251110Z 33007KT 280V050 9999 SCT018 FEW020TCU 30/25 Q1009 NOSIG RMK SE

EXPIRED METARs :
  • 251010Z 05009KT 360V080 9999 FEW018 FEW020TCU 33/21 Q1009 NOSIG RMK SE
  • 250910Z 04008KT 330V120 9999 SCT018 33/21 Q1009 NOSIG

TAF TAF VCBI
Valid from the 25 at 12:00 until the 26 at 18:00 UTC


251100Z 2512/2618 04010KT 9999 FEW018 TX34/2607Z TN24/2600Z



MET'MAP, your aeronautical weather chart ! - Copyright ORBIFLY December 2007 - Disclaimer

ORBIFLY MET'MAP TEAM :

Programming & Development : Alexandra Zaïnal
Concept & original design : Baudouin d'Aumeries
Assistance for programming : Marc-Olivier Méhu
Technical & hardware support : Manuel Goepfert

Contact : metmap@orbifly.com




SOURCES & CREDITS :

   NOAA       Earth
Advisory